createdAt,value
2022-12-25T00:00:34.820Z,84.77
2022-12-25T00:05:59.119Z,84.85
2022-12-25T00:11:21.192Z,84.87
2022-12-25T00:16:26.638Z,84.82
2022-12-25T00:21:50.102Z,84.89
2022-12-25T00:26:54.011Z,84.92
2022-12-25T00:31:57.411Z,84.91
2022-12-25T00:37:01.575Z,84.98
2022-12-25T00:42:20.348Z,85.03
2022-12-25T00:47:24.529Z,85.01
2022-12-25T00:52:29.131Z,85.03
2022-12-25T00:57:34.109Z,85.03
2022-12-25T01:02:37.721Z,85.05
2022-12-25T01:07:41.673Z,85.13
2022-12-25T01:12:44.980Z,85.17
2022-12-25T01:17:48.232Z,85.15
2022-12-25T01:22:51.813Z,85.07
2022-12-25T01:27:55.637Z,85.10
2022-12-25T01:32:59.190Z,85.28
2022-12-25T01:38:02.708Z,85.34
2022-12-25T01:43:33.285Z,85.43
2022-12-25T01:48:39.285Z,85.46
2022-12-25T01:53:42.526Z,85.49
2022-12-25T01:58:46.161Z,85.49
2022-12-25T02:03:49.785Z,85.47
2022-12-25T02:08:53.627Z,85.56
2022-12-25T02:13:57.703Z,85.65
2022-12-25T02:19:18.806Z,85.60
2022-12-25T02:24:22.346Z,85.75
2022-12-25T02:29:54.354Z,85.73
2022-12-25T02:35:06.611Z,85.75
2022-12-25T02:40:27.635Z,85.56
2022-12-25T02:46:10.394Z,85.52
2022-12-25T02:51:36.152Z,85.81
2022-12-25T02:57:01.130Z,85.82
2022-12-25T03:02:25.859Z,85.82
2022-12-25T03:07:31.188Z,85.77
2022-12-25T03:12:59.632Z,85.88
2022-12-25T03:18:07.279Z,85.90
2022-12-25T03:23:32.937Z,85.92
2022-12-25T03:28:36.336Z,85.99
2022-12-25T03:34:29.206Z,86.07
2022-12-25T03:40:33.104Z,86.09
2022-12-25T03:46:07.886Z,86.18
2022-12-25T03:51:33.001Z,86.19
2022-12-25T03:56:57.373Z,86.19
2022-12-25T04:02:19.721Z,86.02
2022-12-25T04:07:42.060Z,86.08
2022-12-25T04:13:03.967Z,86.13
2022-12-25T04:18:25.976Z,86.21
2022-12-25T04:23:47.941Z,86.26
2022-12-25T04:29:09.895Z,86.27
2022-12-25T04:34:31.896Z,86.29
2022-12-25T04:39:35.472Z,86.30
2022-12-25T04:44:39.151Z,86.23
2022-12-25T04:49:42.413Z,86.22
2022-12-25T04:54:45.926Z,86.25
2022-12-25T04:59:49.335Z,86.31
2022-12-25T05:04:53.007Z,86.35
2022-12-25T05:09:56.284Z,86.36
2022-12-25T05:14:59.784Z,86.35
2022-12-25T05:20:05.327Z,86.32
2022-12-25T05:25:08.833Z,86.32
2022-12-25T05:30:12.765Z,86.33
2022-12-25T05:35:16.179Z,86.29
2022-12-25T05:40:19.906Z,86.27
2022-12-25T05:45:23.196Z,86.25
2022-12-25T05:50:26.653Z,86.22
2022-12-25T05:55:46.010Z,86.19
2022-12-25T06:00:49.225Z,86.24
2022-12-25T06:05:53.587Z,86.23
2022-12-25T06:10:56.901Z,86.25
2022-12-25T06:16:04.344Z,86.26
2022-12-25T06:21:12.885Z,86.26
2022-12-25T06:26:18.750Z,86.22
2022-12-25T06:31:23.744Z,86.19
2022-12-25T06:36:29.631Z,86.15
2022-12-25T06:41:33.412Z,86.13
2022-12-25T06:46:36.948Z,86.16
2022-12-25T06:51:40.594Z,86.17
2022-12-25T06:56:43.807Z,86.21
2022-12-25T07:01:55.637Z,86.20
2022-12-25T07:07:06.110Z,86.19
2022-12-25T07:12:21.194Z,86.20
2022-12-25T07:17:24.738Z,86.16
2022-12-25T07:22:30.349Z,86.12
2022-12-25T07:27:33.880Z,86.07
2022-12-25T07:32:37.300Z,86.06
2022-12-25T07:37:40.602Z,86.11
2022-12-25T07:42:43.899Z,86.22
2022-12-25T07:47:47.411Z,86.34
2022-12-25T07:52:50.813Z,86.44
2022-12-25T07:57:54.177Z,86.48
2022-12-25T08:02:57.829Z,86.53
2022-12-25T08:08:01.296Z,86.55
2022-12-25T08:13:09.044Z,86.57
2022-12-25T08:18:15.965Z,86.57
2022-12-25T08:23:19.441Z,86.58
2022-12-25T08:28:23.007Z,86.56
2022-12-25T08:33:26.369Z,86.56
2022-12-25T08:38:29.721Z,86.54
2022-12-25T08:43:33.520Z,86.46
2022-12-25T08:48:37.041Z,86.40
2022-12-25T08:53:41.602Z,86.40
2022-12-25T08:58:45.518Z,86.52
2022-12-25T09:03:49.193Z,86.32
2022-12-25T09:08:52.684Z,86.22
2022-12-25T09:13:56.202Z,86.18
2022-12-25T09:18:59.734Z,86.16
2022-12-25T09:24:06.907Z,86.17
2022-12-25T09:29:10.488Z,86.19
2022-12-25T09:34:17.230Z,86.24
2022-12-25T09:39:23.513Z,86.26
2022-12-25T09:44:35.570Z,86.29
2022-12-25T09:49:53.730Z,86.30
2022-12-25T09:55:03.847Z,86.25
2022-12-25T10:00:19.997Z,86.15
2022-12-25T10:05:45.442Z,85.98
2022-12-25T10:11:34.697Z,85.86
2022-12-25T10:16:48.404Z,85.74
2022-12-25T10:21:57.182Z,85.63
2022-12-25T10:27:04.333Z,85.49
2022-12-25T10:32:10.490Z,85.35
2022-12-25T10:37:20.441Z,85.21
2022-12-25T10:42:46.629Z,85.06
2022-12-25T10:47:59.509Z,84.96
2022-12-25T10:53:06.432Z,84.91
2022-12-25T10:58:21.004Z,84.92
2022-12-25T11:03:29.228Z,84.92
2022-12-25T11:08:35.056Z,84.94
2022-12-25T11:13:49.704Z,84.94
2022-12-25T11:18:54.606Z,84.90
2022-12-25T11:24:03.602Z,84.93
2022-12-25T11:29:24.005Z,84.90
2022-12-25T11:34:48.736Z,84.73
2022-12-25T11:39:52.566Z,84.54
2022-12-25T11:45:19.090Z,84.52
2022-12-25T11:50:28.232Z,84.51
2022-12-25T11:55:41.454Z,84.40
2022-12-25T12:00:47.858Z,84.34
2022-12-25T12:06:28.848Z,84.38
2022-12-25T12:11:46.927Z,84.53
2022-12-25T12:16:50.498Z,84.88
2022-12-25T12:21:57.360Z,83.46
2022-12-25T12:27:33.381Z,83.88
2022-12-25T12:32:42.001Z,84.34
2022-12-25T12:37:47.553Z,84.88
2022-12-25T12:42:52.504Z,85.07
2022-12-25T12:47:56.272Z,85.37
2022-12-25T12:53:00.931Z,85.69
2022-12-25T12:58:06.467Z,85.86
2022-12-25T13:03:28.079Z,86.06
2022-12-25T13:08:46.845Z,86.08
2022-12-25T13:13:52.963Z,86.17
2022-12-25T13:18:57.049Z,86.68
2022-12-25T13:24:09.114Z,86.81
2022-12-25T13:29:32.196Z,87.07
2022-12-25T13:34:43.674Z,87.15
2022-12-25T13:39:52.134Z,87.26
2022-12-25T13:44:59.024Z,87.35
2022-12-25T13:50:30.330Z,87.44
2022-12-25T13:55:34.332Z,87.36
2022-12-25T14:00:49.909Z,87.30
2022-12-25T14:06:27.111Z,87.32
2022-12-25T14:11:32.444Z,87.51
2022-12-25T14:16:36.973Z,87.67
2022-12-25T14:21:49.448Z,87.89
2022-12-25T14:27:08.609Z,88.00
2022-12-25T14:32:17.449Z,88.15
2022-12-25T14:37:24.559Z,88.18
2022-12-25T14:42:30.792Z,88.26
2022-12-25T14:47:50.335Z,88.21
2022-12-25T14:52:54.298Z,88.18
2022-12-25T14:58:08.469Z,88.34
2022-12-25T15:03:25.139Z,88.40
2022-12-25T15:08:29.866Z,88.44
2022-12-25T15:13:34.401Z,88.50
2022-12-25T15:18:43.870Z,88.56
2022-12-25T15:23:47.696Z,88.65
2022-12-25T15:28:51.176Z,88.63
2022-12-25T15:33:56.771Z,88.60
2022-12-25T15:39:00.786Z,88.54
2022-12-25T15:44:06.308Z,88.48
2022-12-25T15:49:11.029Z,88.56
2022-12-25T15:54:14.838Z,88.61
2022-12-25T15:59:19.887Z,88.59
2022-12-25T16:04:24.473Z,88.70
2022-12-25T16:09:28.347Z,88.97
2022-12-25T16:14:32.139Z,89.06
2022-12-25T16:19:35.906Z,88.96
2022-12-25T16:24:39.466Z,89.11
2022-12-25T16:29:42.725Z,89.30
2022-12-25T16:34:48.606Z,89.29
2022-12-25T16:39:52.013Z,89.27
2022-12-25T16:44:56.930Z,89.40
2022-12-25T16:50:01.030Z,89.50
2022-12-25T16:55:05.448Z,89.52
2022-12-25T17:00:09.587Z,89.48
2022-12-25T17:05:13.253Z,89.51
2022-12-25T17:10:17.432Z,89.44
2022-12-25T17:15:20.848Z,89.40
2022-12-25T17:20:24.379Z,89.35
2022-12-25T17:25:28.063Z,89.63
2022-12-25T17:30:32.192Z,89.60
2022-12-25T17:35:37.443Z,89.75
2022-12-25T17:40:41.251Z,89.43
2022-12-25T17:45:45.099Z,89.32
2022-12-25T17:50:49.031Z,89.51
2022-12-25T17:55:59.465Z,89.43
2022-12-25T18:01:12.651Z,89.47
2022-12-25T18:06:19.392Z,89.47
2022-12-25T18:11:27.711Z,89.44
2022-12-25T18:16:33.793Z,89.30
2022-12-25T18:21:37.634Z,89.43
2022-12-25T18:26:42.921Z,89.50
2022-12-25T18:31:46.569Z,89.53
2022-12-25T18:36:49.879Z,89.65
2022-12-25T18:42:12.126Z,89.78
2022-12-25T18:47:15.938Z,89.92
2022-12-25T18:52:48.032Z,89.80
2022-12-25T18:57:42.999Z,89.84
2022-12-25T19:02:46.488Z,89.83
2022-12-25T19:07:50.429Z,89.68
2022-12-25T19:12:53.635Z,89.60
2022-12-25T19:17:57.157Z,89.40
2022-12-25T19:23:00.516Z,89.45
2022-12-25T19:28:04.176Z,89.47
2022-12-25T19:33:11.136Z,89.44
2022-12-25T19:38:20.416Z,89.33
2022-12-25T19:43:23.747Z,89.30
2022-12-25T19:48:28.077Z,89.20
2022-12-25T19:53:31.955Z,89.31
2022-12-25T19:58:35.708Z,89.19
2022-12-25T20:03:45.752Z,89.17
2022-12-25T20:08:55.022Z,89.30
2022-12-25T20:13:59.576Z,89.34
2022-12-25T20:19:04.094Z,89.29
2022-12-25T20:24:10.380Z,89.23
2022-12-25T20:29:14.743Z,89.25
2022-12-25T20:34:18.717Z,89.18
2022-12-25T20:39:22.111Z,89.13
2022-12-25T20:44:25.284Z,89.14
2022-12-25T20:49:32.810Z,89.05
2022-12-25T20:54:37.162Z,88.95
2022-12-25T20:59:43.466Z,90.21
2022-12-25T21:04:52.390Z,89.31
2022-12-25T21:09:57.662Z,84.85
2022-12-25T21:15:01.488Z,84.35
2022-12-25T21:20:05.333Z,83.36
2022-12-25T21:25:08.773Z,81.44
2022-12-25T21:30:14.892Z,80.10
2022-12-25T21:35:18.891Z,79.86
2022-12-25T21:40:22.255Z,79.01
2022-12-25T21:45:25.430Z,81.41
2022-12-25T21:50:46.947Z,78.50
2022-12-25T21:56:02.597Z,78.14
2022-12-25T22:01:06.361Z,75.92
2022-12-25T22:06:29.652Z,74.43
2022-12-25T22:11:52.081Z,72.23
2022-12-25T22:17:14.211Z,72.08
2022-12-25T22:22:21.580Z,72.23
2022-12-25T22:27:25.993Z,72.31
2022-12-25T22:32:29.691Z,72.99
2022-12-25T22:37:33.507Z,73.65
2022-12-25T22:42:37.848Z,74.09
2022-12-25T22:47:41.236Z,74.43
2022-12-25T22:52:45.955Z,74.68
2022-12-25T22:57:49.375Z,76.58
2022-12-25T23:02:53.054Z,75.08
2022-12-25T23:07:57.098Z,74.45
2022-12-25T23:13:19.340Z,74.88
2022-12-25T23:18:41.766Z,75.67
2022-12-25T23:24:03.844Z,76.54
2022-12-25T23:29:25.801Z,78.05
2022-12-25T23:34:29.454Z,77.48
2022-12-25T23:39:32.882Z,77.09
2022-12-25T23:44:36.315Z,77.14
2022-12-25T23:49:39.970Z,77.73
2022-12-25T23:54:55.325Z,81.17
